Terminal Aerodrome Forecast
Issued by NWS Wilmington, OH

Current Version | Previous Version | Text Only | Print | Product List | Glossary Off
Versions: 1 2 3 4 5 6 7 8 9 10 11 12 13 14 15 16 17 18 19 20 21 22 23 24 25 26 27 28 29 30

000
FTUS41 KILN 210800 AAB
TAFCVG
TAF AMD
KCVG 210856Z 2109/2212 22008KT P6SM VCSH SCT025 BKN050
     FM211100 24009KT P6SM SCT012 OVC040
     FM211500 26015G25KT P6SM SCT035
     FM212000 32017G27KT P6SM BKN050
     FM220200 32012KT P6SM OVC040=

USA.gov is the U.S. government's official web portal to all federal, state and local government web resources and services.